^^
Grace C. Lehan Memorial Weather Station Historical Data
Daily Summary for July 20, 2022 Units:  Both    English   Metric
Daily Weekly Monthly Yearly
  High: Low: Average:
Temperature: 76.6 °F /  24.8 °C 62.2 °F /  16.8 °C 68.3 °F /  20.2 °C
Dew Point: 68 °F /  20 °C 60.4 °F /  15.8 °C 63.5 °F /  17.5 °C
Humidity: 97% 63.5% 86%
Wind Speed: 4.2mph /  6.8km/h - 0.4mph /  0.6km/h
Wind Gust: 14mph /  22.5km/h - -
Wind- - WNW
Pressure: 29.89 in /  1012.1 hPa 29.76 in /  1007.7 hPa -
Precipitation: 0.07 in /  1.78 mm    
 
 
Tabular Data for July 20, 2022
Time Temperature Dew Point Pressure Wind Wind Speed Wind Gust Humidity Rainfall Rate (Hourly) solar
00:00 66 °F /  18.9 °C 64.5 °F /  18.1 °C 29.79in /  1008.7hPa Calm     95% 0.00in /  0mm 0 W/m2
00:09 65.9 °F /  18.8 °C 64.4 °F /  18 °C 29.79in /  1008.7hPa Calm     95% 0.00in /  0mm 0 W/m2
00:14 65.8 °F /  18.8 °C 64.3 °F /  17.9 °C 29.80in /  1009hPa Calm     95% 0.00in /  0mm 0 W/m2
00:19 65.7 °F /  18.7 °C 64.2 °F /  17.9 °C 29.79in /  1008.7hPa Calm     95% 0.00in /  0mm 0 W/m2
00:24 65.7 °F /  18.7 °C 64.2 °F /  17.9 °C 29.79in /  1008.7hPa Calm     95% 0.00in /  0mm 0 W/m2
00:29 65.6 °F /  18.7 °C 64.1 °F /  17.8 °C 29.79in /  1008.7hPa Calm     95% 0.00in /  0mm 0 W/m2
00:34 65.5 °F /  18.6 °C 64 °F /  17.8 °C 29.79in /  1008.7hPa Calm     95% 0.00in /  0mm 0 W/m2
00:39 65.4 °F /  18.6 °C 63.9 °F /  17.7 °C 29.78in /  1008.4hPa Calm     95% 0.00in /  0mm 0 W/m2
00:44 65.3 °F /  18.5 °C 63.8 °F /  17.7 °C 29.79in /  1008.7hPa Calm     95% 0.00in /  0mm 0 W/m2
00:49 65.2 °F /  18.4 °C 63.7 °F /  17.6 °C 29.78in /  1008.4hPa Calm     95% 0.00in /  0mm 0 W/m2
00:54 65.1 °F /  18.4 °C 63.6 °F /  17.6 °C 29.78in /  1008.4hPa Calm     95% 0.00in /  0mm 0 W/m2
00:59 65 °F /  18.3 °C 63.5 °F /  17.5 °C 29.78in /  1008.4hPa Calm     95% 0.00in /  0mm 0 W/m2
01:04 65 °F /  18.3 °C 63.5 °F /  17.5 °C 29.78in /  1008.4hPa Calm     95% 0.00in /  0mm 0 W/m2
01:09 65 °F /  18.3 °C 63.5 °F /  17.5 °C 29.79in /  1008.7hPa Calm     95% 0.00in /  0mm 0 W/m2
01:14 64.9 °F /  18.3 °C 63.4 °F /  17.4 °C 29.79in /  1008.7hPa Calm     95% 0.00in /  0mm 0 W/m2
01:19 64.9 °F /  18.3 °C 63.5 °F /  17.5 °C 29.79in /  1008.7hPa Calm     95.4% 0.00in /  0mm 0 W/m2
01:24 64.9 °F /  18.3 °C 63.7 °F /  17.6 °C 29.79in /  1008.7hPa Calm     95.8% 0.00in /  0mm 0 W/m2
01:29 65 °F /  18.3 °C 63.8 °F /  17.7 °C 29.78in /  1008.4hPa Calm     96% 0.00in /  0mm 0 W/m2
01:34 65 °F /  18.3 °C 63.8 °F /  17.7 °C 29.78in /  1008.4hPa Calm     96% 0.00in /  0mm 0 W/m2
01:39 65 °F /  18.3 °C 63.8 °F /  17.7 °C 29.78in /  1008.4hPa Calm     96% 0.00in /  0mm 0 W/m2
01:44 65 °F /  18.3 °C 63.8 °F /  17.7 °C 29.78in /  1008.4hPa Calm     96% 0.00in /  0mm 0 W/m2
01:49 64.9 °F /  18.3 °C 63.6 °F /  17.6 °C 29.78in /  1008.4hPa Calm     95.8% 0.00in /  0mm 0 W/m2
01:54 64.8 °F /  18.2 °C 63.3 °F /  17.4 °C 29.78in /  1008.4hPa Calm     95% 0.00in /  0mm 0 W/m2
01:59 64.7 °F /  18.2 °C 63.2 °F /  17.3 °C 29.78in /  1008.4hPa Calm     95% 0.00in /  0mm 0 W/m2
02:04 64.7 °F /  18.2 °C 63.5 °F /  17.5 °C 29.78in /  1008.4hPa Calm     96% 0.00in /  0mm 0 W/m2
02:09 64.7 °F /  18.2 °C 63.5 °F /  17.5 °C 29.78in /  1008.4hPa Calm     96% 0.00in /  0mm 0 W/m2
02:14 64.8 °F /  18.2 °C 63.6 °F /  17.6 °C 29.78in /  1008.4hPa Calm     96% 0.00in /  0mm 0 W/m2
02:19 64.8 °F /  18.2 °C 63.6 °F /  17.6 °C 29.78in /  1008.4hPa Calm     96% 0.00in /  0mm 0 W/m2
02:24 64.9 °F /  18.3 °C 63.7 °F /  17.6 °C 29.77in /  1008hPa Calm     96% 0.00in /  0mm 0 W/m2
02:29 64.9 °F /  18.3 °C 63.7 °F /  17.6 °C 29.77in /  1008hPa Calm     96% 0.00in /  0mm 0 W/m2
02:34 64.9 °F /  18.3 °C 63.7 °F /  17.6 °C 29.77in /  1008hPa Calm     96% 0.00in /  0mm 0 W/m2
02:39 64.8 °F /  18.2 °C 63.6 °F /  17.6 °C 29.77in /  1008hPa Calm     96% 0.00in /  0mm 0 W/m2
02:44 64.7 °F /  18.2 °C 63.5 °F /  17.5 °C 29.76in /  1007.7hPa Calm     96% 0.00in /  0mm 0 W/m2
02:49 64.6 °F /  18.1 °C 63.4 °F /  17.4 °C 29.76in /  1007.7hPa Calm     96% 0.00in /  0mm 0 W/m2
02:54 64.6 °F /  18.1 °C 63.4 °F /  17.4 °C 29.77in /  1008hPa Calm     96% 0.00in /  0mm 0 W/m2
02:59 64.5 °F /  18.1 °C 63.3 °F /  17.4 °C 29.77in /  1008hPa Calm     96% 0.00in /  0mm 0 W/m2
03:04 64.4 °F /  18 °C 63.2 °F /  17.3 °C 29.78in /  1008.4hPa Calm     96% 0.00in /  0mm 0 W/m2
03:09 64.3 °F /  17.9 °C 63.1 °F /  17.3 °C 29.78in /  1008.4hPa Calm     96% 0.00in /  0mm 0 W/m2
03:14 64.2 °F /  17.9 °C 63 °F /  17.2 °C 29.77in /  1008hPa Calm     96% 0.00in /  0mm 0 W/m2
03:19 64.2 °F /  17.9 °C 63 °F /  17.2 °C 29.77in /  1008hPa Calm     96% 0.00in /  0mm 0 W/m2
03:24 64.1 °F /  17.8 °C 62.9 °F /  17.2 °C 29.77in /  1008hPa Calm     96% 0.00in /  0mm 0 W/m2
03:29 64.1 °F /  17.8 °C 62.9 °F /  17.2 °C 29.77in /  1008hPa Calm     96% 0.00in /  0mm 0 W/m2
03:34 64.1 °F /  17.8 °C 62.9 °F /  17.2 °C 29.77in /  1008hPa Calm     96% 0.00in /  0mm 0 W/m2
03:39 64.1 °F /  17.8 °C 62.9 °F /  17.2 °C 29.77in /  1008hPa Calm     96% 0.00in /  0mm 0 W/m2
03:44 64 °F /  17.8 °C 62.8 °F /  17.1 °C 29.77in /  1008hPa Calm     96% 0.00in /  0mm 0 W/m2
03:49 63.9 °F /  17.7 °C 62.7 °F /  17.1 °C 29.77in /  1008hPa Calm     96% 0.00in /  0mm 0 W/m2
03:54 63.9 °F /  17.7 °C 62.7 °F /  17.1 °C 29.77in /  1008hPa Calm     96% 0.00in /  0mm 0 W/m2
03:59 63.8 °F /  17.7 °C 62.6 °F /  17 °C 29.77in /  1008hPa Calm     96% 0.00in /  0mm 0 W/m2
04:00 63.7 °F /  17.6 °C 62.5 °F /  16.9 °C 29.77in /  1008hPa Calm     96% 0.00in /  0mm 0 W/m2
04:09 63.7 °F /  17.6 °C 62.5 °F /  16.9 °C 29.77in /  1008hPa Calm     96% 0.00in /  0mm 0 W/m2
04:14 63.7 °F /  17.6 °C 62.5 °F /  16.9 °C 29.78in /  1008.4hPa Calm     96% 0.00in /  0mm 0 W/m2
04:19 63.7 °F /  17.6 °C 62.5 °F /  16.9 °C 29.77in /  1008hPa Calm     96% 0.00in /  0mm 0 W/m2
04:24 63.7 °F /  17.6 °C 62.5 °F /  16.9 °C 29.77in /  1008hPa Calm     96% 0.00in /  0mm 0 W/m2
04:29 63.6 °F /  17.6 °C 62.4 °F /  16.9 °C 29.78in /  1008.4hPa Calm     96% 0.00in /  0mm 0 W/m2
04:34 63.6 °F /  17.6 °C 62.4 °F /  16.9 °C 29.78in /  1008.4hPa Calm     96% 0.00in /  0mm 0 W/m2
04:39 63.5 °F /  17.5 °C 62.3 °F /  16.8 °C 29.78in /  1008.4hPa Calm     96% 0.00in /  0mm 0 W/m2
04:44 63.5 °F /  17.5 °C 62.3 °F /  16.8 °C 29.78in /  1008.4hPa Calm     96% 0.00in /  0mm 0 W/m2
04:49 63.5 °F /  17.5 °C 62.3 °F /  16.8 °C 29.78in /  1008.4hPa Calm     96% 0.00in /  0mm 0 W/m2
04:54 63.5 °F /  17.5 °C 62.3 °F /  16.8 °C 29.78in /  1008.4hPa Calm     96% 0.00in /  0mm 0 W/m2
04:59 63.4 °F /  17.4 °C 62.2 °F /  16.8 °C 29.78in /  1008.4hPa Calm     96% 0.00in /  0mm 0 W/m2
05:04 63.5 °F /  17.5 °C 62.3 °F /  16.8 °C 29.78in /  1008.4hPa Calm     96% 0.00in /  0mm 0 W/m2
05:09 63.5 °F /  17.5 °C 62.3 °F /  16.8 °C 29.78in /  1008.4hPa Calm     96% 0.00in /  0mm 0 W/m2
05:14 63.5 °F /  17.5 °C 62.3 °F /  16.8 °C 29.78in /  1008.4hPa Calm     96% 0.00in /  0mm 0 W/m2
05:19 63.5 °F /  17.5 °C 62.3 °F /  16.8 °C 29.78in /  1008.4hPa Calm     96% 0.00in /  0mm 0 W/m2
05:24 63.5 °F /  17.5 °C 62.3 °F /  16.8 °C 29.78in /  1008.4hPa Calm     96% 0.00in /  0mm 0 W/m2
05:29 63.4 °F /  17.4 °C 62.2 °F /  16.8 °C 29.78in /  1008.4hPa Calm     96% 0.00in /  0mm 0 W/m2
05:34 63.5 °F /  17.5 °C 62.3 °F /  16.8 °C 29.78in /  1008.4hPa Calm     96% 0.00in /  0mm 0 W/m2
05:39 63.5 °F /  17.5 °C 62.3 °F /  16.8 °C 29.78in /  1008.4hPa Calm     96% 0.00in /  0mm 0 W/m2
05:44 63.4 °F /  17.4 °C 62.2 °F /  16.8 °C 29.79in /  1008.7hPa Calm     96% 0.00in /  0mm 0 W/m2
05:49 63.4 °F /  17.4 °C 62.2 °F /  16.8 °C 29.78in /  1008.4hPa Calm     96% 0.00in /  0mm 0 W/m2
05:54 63.4 °F /  17.4 °C 62.2 °F /  16.8 °C 29.79in /  1008.7hPa Calm     96% 0.00in /  0mm 0 W/m2
05:59 63.3 °F /  17.4 °C 62.1 °F /  16.7 °C 29.79in /  1008.7hPa Calm     96% 0.00in /  0mm 0 W/m2
06:04 63.3 °F /  17.4 °C 62.1 °F /  16.7 °C 29.79in /  1008.7hPa Calm     96% 0.00in /  0mm 0 W/m2
06:09 63.2 °F /  17.3 °C 62 °F /  16.7 °C 29.79in /  1008.7hPa Calm     96% 0.00in /  0mm 0 W/m2
06:14 63 °F /  17.2 °C 61.9 °F /  16.6 °C 29.79in /  1008.7hPa Calm     96% 0.00in /  0mm 0 W/m2
06:19 62.9 °F /  17.2 °C 61.7 °F /  16.5 °C 29.79in /  1008.7hPa Calm     96% 0.00in /  0mm 0 W/m2
06:24 62.7 °F /  17.1 °C 61.5 °F /  16.4 °C 29.79in /  1008.7hPa Calm     96% 0.00in /  0mm 0 W/m2
06:29 62.7 °F /  17.1 °C 61.5 °F /  16.4 °C 29.80in /  1009hPa Calm     96% 0.00in /  0mm 0 W/m2
06:34 62.6 °F /  17 °C 61.5 °F /  16.4 °C 29.80in /  1009hPa Calm     96% 0.00in /  0mm 0 W/m2
06:39 62.5 °F /  16.9 °C 61.4 °F /  16.3 °C 29.80in /  1009hPa Calm     96% 0.00in /  0mm 0 W/m2
06:44 62.4 °F /  16.9 °C 61.2 °F /  16.2 °C 29.80in /  1009hPa Calm     96% 0.00in /  0mm 7 W/m2
06:49 62.3 °F /  16.8 °C 61.1 °F /  16.2 °C 29.80in /  1009hPa Calm     96% 0.00in /  0mm 9 W/m2
06:54 62.3 °F /  16.8 °C 61.1 °F /  16.2 °C 29.81in /  1009.4hPa Calm     96% 0.00in /  0mm 12 W/m2
06:59 62.2 °F /  16.8 °C 61 °F /  16.1 °C 29.81in /  1009.4hPa Calm     96% 0.00in /  0mm 14 W/m2
07:04 62.2 °F /  16.8 °C 61 °F /  16.1 °C 29.81in /  1009.4hPa Calm     96% 0.00in /  0mm 16 W/m2
07:09 62.2 °F /  16.8 °C 61 °F /  16.1 °C 29.81in /  1009.4hPa Calm     96% 0.00in /  0mm 21 W/m2
07:14 62.3 °F /  16.8 °C 61.1 °F /  16.2 °C 29.81in /  1009.4hPa Calm     96% 0.00in /  0mm 28 W/m2
07:19 62.4 °F /  16.9 °C 61.3 °F /  16.3 °C 29.81in /  1009.4hPa Calm     96.2% 0.00in /  0mm 33 W/m2
07:24 62.6 °F /  17 °C 61.7 °F /  16.5 °C 29.81in /  1009.4hPa Calm     97% 0.00in /  0mm 47 W/m2
07:29 62.7 °F /  17.1 °C 61.8 °F /  16.6 °C 29.81in /  1009.4hPa Calm     97% 0.00in /  0mm 33 W/m2
07:34 62.9 °F /  17.2 °C 62 °F /  16.7 °C 29.81in /  1009.4hPa Calm     97% 0.00in /  0mm 28 W/m2
07:39 63 °F /  17.2 °C 62.1 °F /  16.7 °C 29.81in /  1009.4hPa Calm     97% 0.00in /  0mm 30 W/m2
07:44 63 °F /  17.2 °C 62.1 °F /  16.7 °C 29.82in /  1009.7hPa Calm     97% 0.00in /  0mm 44 W/m2
07:49 63.1 °F /  17.3 °C 62.2 °F /  16.8 °C 29.81in /  1009.4hPa Calm     97% 0.00in /  0mm 51 W/m2
07:54 63.2 °F /  17.3 °C 62.3 °F /  16.8 °C 29.81in /  1009.4hPa Calm     97% 0.00in /  0mm 58 W/m2
07:59 63.4 °F /  17.4 °C 62.5 °F /  16.9 °C 29.82in /  1009.7hPa Calm     97% 0.00in /  0mm 37 W/m2
08:00 63.4 °F /  17.4 °C 62.5 °F /  16.9 °C 29.81in /  1009.4hPa Calm     97% 0.00in /  0mm 37 W/m2
08:09 63.7 °F /  17.6 °C 62.8 °F /  17.1 °C 29.81in /  1009.4hPa Calm     97% 0.00in /  0mm 46 W/m2
08:14 63.8 °F /  17.7 °C 62.9 °F /  17.2 °C 29.82in /  1009.7hPa Calm     97% 0.00in /  0mm 53 W/m2
08:19 64.1 °F /  17.8 °C 63.2 °F /  17.3 °C 29.81in /  1009.4hPa Calm     97% 0.00in /  0mm 72 W/m2
08:24 64.3 °F /  17.9 °C 63.4 °F /  17.4 °C 29.82in /  1009.7hPa Calm     97% 0.00in /  0mm 107 W/m2
08:29 64.6 °F /  18.1 °C 63.7 °F /  17.6 °C 29.82in /  1009.7hPa Calm     97% 0.00in /  0mm 153 W/m2
08:34 65.1 °F /  18.4 °C 64.2 °F /  17.9 °C 29.82in /  1009.7hPa Calm     97% 0.00in /  0mm 169 W/m2
08:39 65.4 °F /  18.6 °C 64.5 °F /  18.1 °C 29.82in /  1009.7hPa Calm     97% 0.00in /  0mm 167 W/m2
08:44 65.5 °F /  18.6 °C 64.6 °F /  18.1 °C 29.82in /  1009.7hPa Calm     97% 0.00in /  0mm 153 W/m2
08:49 65.7 °F /  18.7 °C 64.8 °F /  18.2 °C 29.82in /  1009.7hPa Calm     97% 0.00in /  0mm 144 W/m2
08:54 65.8 °F /  18.8 °C 64.9 °F /  18.3 °C 29.82in /  1009.7hPa WSW 0.1mph /  0.2km/h 2mph /  3.2km/h 97% 0.00in /  0mm 178 W/m2
08:59 65.9 °F /  18.8 °C 65 °F /  18.3 °C 29.82in /  1009.7hPa Calm   2mph /  3.2km/h 97% 0.00in /  0mm 355 W/m2
09:04 66.2 °F /  19 °C 65.3 °F /  18.5 °C 29.82in /  1009.7hPa WSW 0.1mph /  0.2km/h 2mph /  3.2km/h 97% 0.00in /  0mm 452 W/m2
09:09 66.4 °F /  19.1 °C 65.5 °F /  18.6 °C 29.82in /  1009.7hPa Calm   2mph /  3.2km/h 97% 0.00in /  0mm 452 W/m2
09:14 66.8 °F /  19.3 °C 65.9 °F /  18.8 °C 29.82in /  1009.7hPa Calm   2mph /  3.2km/h 97% 0.00in /  0mm 457 W/m2
09:19 67.3 °F /  19.6 °C 66.4 °F /  19.1 °C 29.82in /  1009.7hPa Calm   2mph /  3.2km/h 97% 0.00in /  0mm 457 W/m2
09:24 67.5 °F /  19.7 °C 66.6 °F /  19.2 °C 29.82in /  1009.7hPa WSW 0.1mph /  0.2km/h 2mph /  3.2km/h 97% 0.00in /  0mm 417 W/m2
09:29 67.6 °F /  19.8 °C 66.7 °F /  19.3 °C 29.82in /  1009.7hPa Calm   2mph /  3.2km/h 97% 0.00in /  0mm 441 W/m2
09:34 67.7 °F /  19.8 °C 66.8 °F /  19.3 °C 29.82in /  1009.7hPa West 0.3mph /  0.5km/h 6mph /  9.7km/h 97% 0.00in /  0mm 520 W/m2
09:39 68.2 °F /  20.1 °C 67.2 °F /  19.6 °C 29.82in /  1009.7hPa West 1.4mph /  2.3km/h 6mph /  9.7km/h 96.4% 0.00in /  0mm 526 W/m2
09:44 69 °F /  20.6 °C 67.4 °F /  19.7 °C 29.82in /  1009.7hPa West 1.3mph /  2.1km/h 6mph /  9.7km/h 94.8% 0.00in /  0mm 540 W/m2
09:49 69.8 °F /  21 °C 67.4 °F /  19.7 °C 29.83in /  1010hPa WNW 0.8mph /  1.3km/h 10mph /  16.1km/h 92.1% 0.00in /  0mm 550 W/m2
09:54 70.9 °F /  21.6 °C 68 °F /  20 °C 29.83in /  1010hPa WNW 0.2mph /  0.3km/h 10mph /  16.1km/h 90.4% 0.00in /  0mm 580 W/m2
09:59 71.9 °F /  22.2 °C 67.7 °F /  19.8 °C 29.83in /  1010hPa WNW 0.6mph /  1km/h 10mph /  16.1km/h 86.6% 0.00in /  0mm 599 W/m2
10:04 72.7 °F /  22.6 °C 67 °F /  19.4 °C 29.83in /  1010hPa WNW 2.4mph /  3.9km/h 10mph /  16.1km/h 82.4% 0.00in /  0mm 624 W/m2
10:09 73.3 °F /  22.9 °C 66.3 °F /  19.1 °C 29.83in /  1010hPa WNW 1.2mph /  1.9km/h 10mph /  16.1km/h 79% 0.00in /  0mm 612 W/m2
10:14 73.9 °F /  23.3 °C 66.9 °F /  19.4 °C 29.83in /  1010hPa WNW 1.4mph /  2.3km/h 13mph /  20.9km/h 78.8% 0.00in /  0mm 635 W/m2
10:19 74.3 °F /  23.5 °C 66 °F /  18.9 °C 29.83in /  1010hPa West 2mph /  3.2km/h 13mph /  20.9km/h 75.2% 0.00in /  0mm 686 W/m2
10:24 74.6 °F /  23.7 °C 66.1 °F /  18.9 °C 29.83in /  1010hPa WSW 0.7mph /  1.1km/h 13mph /  20.9km/h 74.8% 0.00in /  0mm 747 W/m2
10:29 74.8 °F /  23.8 °C 66.2 °F /  19 °C 29.83in /  1010hPa WNW 0.2mph /  0.3km/h 13mph /  20.9km/h 74.7% 0.00in /  0mm 207 W/m2
10:34 74.7 °F /  23.7 °C 65.7 °F /  18.7 °C 29.83in /  1010hPa WNW 2mph /  3.2km/h 13mph /  20.9km/h 73.5% 0.00in /  0mm 160 W/m2
10:39 74.6 °F /  23.7 °C 65.5 °F /  18.6 °C 29.83in /  1010hPa NW 1.6mph /  2.6km/h 13mph /  20.9km/h 73.2% 0.00in /  0mm 784 W/m2
10:44 74.8 °F /  23.8 °C 64.8 °F /  18.2 °C 29.83in /  1010hPa NW 3.1mph /  5km/h 13mph /  20.9km/h 71.2% 0.00in /  0mm 779 W/m2
10:49 75 °F /  23.9 °C 65.6 °F /  18.7 °C 29.82in /  1009.7hPa NW 1.8mph /  2.9km/h 13mph /  20.9km/h 72.3% 0.00in /  0mm 766 W/m2
10:54 75.4 °F /  24.1 °C 65.3 °F /  18.5 °C 29.82in /  1009.7hPa NW 1.5mph /  2.4km/h 13mph /  20.9km/h 71% 0.00in /  0mm 749 W/m2
10:59 75.7 °F /  24.3 °C 65.4 °F /  18.6 °C 29.82in /  1009.7hPa NNW 1.4mph /  2.3km/h 13mph /  20.9km/h 70.5% 0.00in /  0mm 745 W/m2
11:04 76.1 °F /  24.5 °C 65.4 °F /  18.6 °C 29.82in /  1009.7hPa NW 2.6mph /  4.2km/h 13mph /  20.9km/h 69.5% 0.00in /  0mm 814 W/m2
11:09 76.3 °F /  24.6 °C 64.9 °F /  18.3 °C 29.82in /  1009.7hPa NW 1.6mph /  2.6km/h 11mph /  17.7km/h 67.7% 0.00in /  0mm 874 W/m2
11:14 76.5 °F /  24.7 °C 64.8 °F /  18.2 °C 29.82in /  1009.7hPa NNW 1.9mph /  3.1km/h 11mph /  17.7km/h 67.2% 0.00in /  0mm 914 W/m2
11:19 76.3 °F /  24.6 °C 64.6 °F /  18.1 °C 29.82in /  1009.7hPa WNW 1.7mph /  2.7km/h 11mph /  17.7km/h 67.1% 0.00in /  0mm 378 W/m2
11:24 75.8 °F /  24.3 °C 64.1 °F /  17.8 °C 29.82in /  1009.7hPa WNW 1.1mph /  1.8km/h 12mph /  19.3km/h 67% 0.00in /  0mm 195 W/m2
11:29 75.2 °F /  24 °C 64.1 °F /  17.8 °C 29.82in /  1009.7hPa WNW 0.1mph /  0.2km/h 12mph /  19.3km/h 68.6% 0.00in /  0mm 844 W/m2
11:34 75.1 °F /  23.9 °C 64.5 °F /  18.1 °C 29.82in /  1009.7hPa WNW 0.1mph /  0.2km/h 12mph /  19.3km/h 69.7% 0.00in /  0mm 710 W/m2
11:39 75.3 °F /  24.1 °C 64.1 °F /  17.8 °C 29.82in /  1009.7hPa NW 1.4mph /  2.3km/h 6mph /  9.7km/h 68.1% 0.00in /  0mm 306 W/m2
11:44 75.2 °F /  24 °C 63.7 °F /  17.6 °C 29.82in /  1009.7hPa NW 1.9mph /  3.1km/h 10mph /  16.1km/h 67.5% 0.00in /  0mm 278 W/m2
11:49 74.9 °F /  23.8 °C 63.1 °F /  17.3 °C 29.82in /  1009.7hPa NW 1.5mph /  2.4km/h 10mph /  16.1km/h 66.7% 0.00in /  0mm 283 W/m2
11:54 74.5 °F /  23.6 °C 63.1 °F /  17.3 °C 29.82in /  1009.7hPa NW 2.4mph /  3.9km/h 13mph /  20.9km/h 67.7% 0.00in /  0mm 283 W/m2
11:59 74.4 °F /  23.6 °C 63.5 °F /  17.5 °C 29.82in /  1009.7hPa WNW 1.7mph /  2.7km/h 13mph /  20.9km/h 68.8% 0.00in /  0mm 271 W/m2
12:00 74.5 °F /  23.6 °C 63.7 °F /  17.6 °C 29.81in /  1009.4hPa NW 2.7mph /  4.3km/h 13mph /  20.9km/h 69% 0.00in /  0mm 190 W/m2
12:09 74.8 °F /  23.8 °C 63.7 °F /  17.6 °C 29.81in /  1009.4hPa West 0.8mph /  1.3km/h 4mph /  6.4km/h 68.4% 0.00in /  0mm 142 W/m2
12:14 75.1 °F /  23.9 °C 64 °F /  17.8 °C 29.81in /  1009.4hPa WNW 2mph /  3.2km/h 10mph /  16.1km/h 68.7% 0.00in /  0mm 276 W/m2
12:19 75.4 °F /  24.1 °C 64 °F /  17.8 °C 29.81in /  1009.4hPa NW 1.3mph /  2.1km/h 10mph /  16.1km/h 67.9% 0.00in /  0mm 417 W/m2
12:24 75.6 °F /  24.2 °C 63.6 °F /  17.6 °C 29.81in /  1009.4hPa WNW 2.1mph /  3.4km/h 12mph /  19.3km/h 66.3% 0.00in /  0mm 276 W/m2
12:29 75.5 °F /  24.2 °C 63 °F /  17.2 °C 29.81in /  1009.4hPa West 1.3mph /  2.1km/h 12mph /  19.3km/h 65.3% 0.00in /  0mm 345 W/m2
12:34 75.3 °F /  24.1 °C 63.5 °F /  17.5 °C 29.82in /  1009.7hPa WNW 0.8mph /  1.3km/h 12mph /  19.3km/h 66.8% 0.00in /  0mm 364 W/m2
12:39 75.5 °F /  24.2 °C 64.5 °F /  18.1 °C 29.82in /  1009.7hPa SSW 0.1mph /  0.2km/h 4mph /  6.4km/h 68.7% 0.00in /  0mm 345 W/m2
12:44 75.8 °F /  24.3 °C 63.6 °F /  17.6 °C 29.82in /  1009.7hPa West 2.4mph /  3.9km/h 12mph /  19.3km/h 65.9% 0.00in /  0mm 279 W/m2
12:49 75.8 °F /  24.3 °C 63.3 °F /  17.4 °C 29.82in /  1009.7hPa NW 1.9mph /  3.1km/h 12mph /  19.3km/h 65.4% 0.00in /  0mm 315 W/m2
12:54 76 °F /  24.4 °C 65 °F /  18.3 °C 29.82in /  1009.7hPa WNW 0.6mph /  1km/h 12mph /  19.3km/h 68.7% 0.00in /  0mm 350 W/m2
12:59 76.4 °F /  24.7 °C 64 °F /  17.8 °C 29.82in /  1009.7hPa WNW 3mph /  4.8km/h 12mph /  19.3km/h 65.5% 0.00in /  0mm 246 W/m2
13:04 76.1 °F /  24.5 °C 62.8 °F /  17.1 °C 29.82in /  1009.7hPa NW 1.7mph /  2.7km/h 12mph /  19.3km/h 63.5% 0.00in /  0mm 221 W/m2
13:09 75.8 °F /  24.3 °C 62.8 °F /  17.1 °C 29.82in /  1009.7hPa WNW 1.3mph /  2.1km/h 12mph /  19.3km/h 64.1% 0.00in /  0mm 132 W/m2
13:14 75.5 °F /  24.2 °C 63.2 °F /  17.3 °C 29.81in /  1009.4hPa WNW 1.1mph /  1.8km/h 12mph /  19.3km/h 65.6% 0.00in /  0mm 269 W/m2
13:19 75.5 °F /  24.2 °C 63.6 °F /  17.6 °C 29.81in /  1009.4hPa WNW 0.6mph /  1km/h 12mph /  19.3km/h 66.7% 0.00in /  0mm 197 W/m2
13:24 75.7 °F /  24.3 °C 63.9 °F /  17.7 °C 29.82in /  1009.7hPa WNW 2mph /  3.2km/h 12mph /  19.3km/h 67% 0.00in /  0mm 132 W/m2
13:29 75.7 °F /  24.3 °C 63.6 °F /  17.6 °C 29.82in /  1009.7hPa WNW 1.3mph /  2.1km/h 12mph /  19.3km/h 66.2% 0.00in /  0mm 190 W/m2
13:34 75.5 °F /  24.2 °C 63.6 °F /  17.6 °C 29.81in /  1009.4hPa WNW 0.6mph /  1km/h 12mph /  19.3km/h 66.3% 0.00in /  0mm 214 W/m2
13:39 75.6 °F /  24.2 °C 63.9 °F /  17.7 °C 29.81in /  1009.4hPa WNW 1.2mph /  1.9km/h 6mph /  9.7km/h 67.1% 0.00in /  0mm 100 W/m2
13:44 75.6 °F /  24.2 °C 63.9 °F /  17.7 °C 29.81in /  1009.4hPa WNW 1mph /  1.6km/h 6mph /  9.7km/h 67% 0.00in /  0mm 109 W/m2
13:49 75.5 °F /  24.2 °C 63.6 °F /  17.6 °C 29.81in /  1009.4hPa North 0.6mph /  1km/h 6mph /  9.7km/h 66.5% 0.00in /  0mm 127 W/m2
13:54 75.2 °F /  24 °C 63.4 °F /  17.4 °C 29.81in /  1009.4hPa NW 1.6mph /  2.6km/h 7mph /  11.3km/h 66.7% 0.00in /  0mm 227 W/m2
13:59 75.1 °F /  23.9 °C 63.6 °F /  17.6 °C 29.81in /  1009.4hPa NW 2mph /  3.2km/h 10mph /  16.1km/h 67.4% 0.00in /  0mm 281 W/m2
14:04 75.2 °F /  24 °C 63.7 °F /  17.6 °C 29.81in /  1009.4hPa WNW 1.8mph /  2.9km/h 10mph /  16.1km/h 67.4% 0.00in /  0mm 313 W/m2
14:09 75.7 °F /  24.3 °C 64.1 °F /  17.8 °C 29.81in /  1009.4hPa WNW 3.1mph /  5km/h 11mph /  17.7km/h 67.4% 0.00in /  0mm 318 W/m2
14:14 76 °F /  24.4 °C 63.8 °F /  17.7 °C 29.81in /  1009.4hPa WNW 0.7mph /  1.1km/h 11mph /  17.7km/h 65.8% 0.00in /  0mm 248 W/m2
14:19 76.3 °F /  24.6 °C 63.5 °F /  17.5 °C 29.81in /  1009.4hPa NW 0.2mph /  0.3km/h 11mph /  17.7km/h 64.8% 0.00in /  0mm 183 W/m2
14:24 76.4 °F /  24.7 °C 63.6 °F /  17.6 °C 29.80in /  1009hPa NNW 0.1mph /  0.2km/h 11mph /  17.7km/h 64.6% 0.00in /  0mm 183 W/m2
14:29 76.3 °F /  24.6 °C 63.4 °F /  17.4 °C 29.80in /  1009hPa North 0.1mph /  0.2km/h 11mph /  17.7km/h 64.4% 0.00in /  0mm 227 W/m2
14:34 76.4 °F /  24.7 °C 64.3 °F /  17.9 °C 29.81in /  1009.4hPa NW 1.1mph /  1.8km/h 11mph /  17.7km/h 66.1% 0.00in /  0mm 230 W/m2
14:39 76.6 °F /  24.8 °C 63.9 °F /  17.7 °C 29.81in /  1009.4hPa WNW 1.5mph /  2.4km/h 11mph /  17.7km/h 65% 0.00in /  0mm 174 W/m2
14:44 76.4 °F /  24.7 °C 63.4 °F /  17.4 °C 29.80in /  1009hPa NW 0.8mph /  1.3km/h 11mph /  17.7km/h 64% 0.00in /  0mm 221 W/m2
14:49 76.2 °F /  24.6 °C 63.6 °F /  17.6 °C 29.80in /  1009hPa West 1.1mph /  1.8km/h 11mph /  17.7km/h 64.9% 0.00in /  0mm 243 W/m2
14:54 76 °F /  24.4 °C 63.1 °F /  17.3 °C 29.80in /  1009hPa WSW 0.6mph /  1km/h 11mph /  17.7km/h 64.4% 0.00in /  0mm 267 W/m2
14:59 75.8 °F /  24.3 °C 63.3 °F /  17.4 °C 29.80in /  1009hPa Calm   11mph /  17.7km/h 65.1% 0.00in /  0mm 237 W/m2
15:04 75.9 °F /  24.4 °C 64.4 °F /  18 °C 29.80in /  1009hPa SW 0.4mph /  0.6km/h 11mph /  17.7km/h 67.3% 0.00in /  0mm 202 W/m2
15:09 76.1 °F /  24.5 °C 64.5 °F /  18.1 °C 29.80in /  1009hPa West 1.5mph /  2.4km/h 6mph /  9.7km/h 67.3% 0.00in /  0mm 250 W/m2
15:14 76.4 °F /  24.7 °C 64.1 °F /  17.8 °C 29.80in /  1009hPa West 1.3mph /  2.1km/h 7mph /  11.3km/h 65.9% 0.00in /  0mm 160 W/m2
15:19 76.3 °F /  24.6 °C 63.8 °F /  17.7 °C 29.80in /  1009hPa WNW 2.1mph /  3.4km/h 12mph /  19.3km/h 65.3% 0.00in /  0mm 244 W/m2
15:24 76.1 °F /  24.5 °C 63.5 °F /  17.5 °C 29.80in /  1009hPa West 1.4mph /  2.3km/h 12mph /  19.3km/h 65.1% 0.00in /  0mm 244 W/m2
15:29 76 °F /  24.4 °C 63.7 °F /  17.6 °C 29.80in /  1009hPa West 1.4mph /  2.3km/h 12mph /  19.3km/h 65.9% 0.00in /  0mm 369 W/m2
15:34 75.9 °F /  24.4 °C 63.9 °F /  17.7 °C 29.80in /  1009hPa WNW 1.1mph /  1.8km/h 12mph /  19.3km/h 66.4% 0.00in /  0mm 638 W/m2
15:39 75.9 °F /  24.4 °C 64 °F /  17.8 °C 29.80in /  1009hPa WNW 1.8mph /  2.9km/h 8mph /  12.9km/h 66.5% 0.00in /  0mm 130 W/m2
15:44 75.8 °F /  24.3 °C 64.5 °F /  18.1 °C 29.80in /  1009hPa West 2mph /  3.2km/h 12mph /  19.3km/h 68% 0.00in /  0mm 190 W/m2
15:49 75.6 °F /  24.2 °C 64.8 °F /  18.2 °C 29.80in /  1009hPa West 0.8mph /  1.3km/h 12mph /  19.3km/h 69.3% 0.00in /  0mm 550 W/m2
15:54 75.5 °F /  24.2 °C 64.8 °F /  18.2 °C 29.81in /  1009.4hPa West 1.2mph /  1.9km/h 12mph /  19.3km/h 69.6% 0.00in /  0mm 483 W/m2
15:59 75.4 °F /  24.1 °C 64.5 °F /  18.1 °C 29.81in /  1009.4hPa West 0.2mph /  0.3km/h 12mph /  19.3km/h 69% 0.00in /  0mm 76 W/m2
16:09 75.3 °F /  24.1 °C 64.3 °F /  17.9 °C 29.80in /  1009hPa WSW 0.8mph /  1.3km/h 6mph /  9.7km/h 68.9% 0.00in /  0mm 67 W/m2
16:14 75.2 °F /  24 °C 64.3 °F /  17.9 °C 29.80in /  1009hPa WSW 0.5mph /  0.8km/h 6mph /  9.7km/h 68.8% 0.00in /  0mm 62 W/m2
16:19 75.2 °F /  24 °C 64.1 °F /  17.8 °C 29.80in /  1009hPa WSW 1mph /  1.6km/h 10mph /  16.1km/h 68.7% 0.00in /  0mm 65 W/m2
16:24 75 °F /  23.9 °C 64 °F /  17.8 °C 29.80in /  1009hPa WSW 2.1mph /  3.4km/h 10mph /  16.1km/h 68.7% 0.00in /  0mm 86 W/m2
16:29 74.7 °F /  23.7 °C 63.9 °F /  17.7 °C 29.81in /  1009.4hPa WSW 1mph /  1.6km/h 10mph /  16.1km/h 68.9% 0.00in /  0mm 113 W/m2
16:34 74.4 °F /  23.6 °C 64.2 °F /  17.9 °C 29.81in /  1009.4hPa WNW 0.5mph /  0.8km/h 10mph /  16.1km/h 70.5% 0.00in /  0mm 128 W/m2
16:39 74.3 °F /  23.5 °C 64.4 °F /  18 °C 29.80in /  1009hPa West 0.4mph /  0.6km/h 6mph /  9.7km/h 71.3% 0.00in /  0mm 128 W/m2
16:44 74.1 °F /  23.4 °C 64.2 °F /  17.9 °C 29.81in /  1009.4hPa West 0.4mph /  0.6km/h 7mph /  11.3km/h 71.2% 0.00in /  0mm 113 W/m2
16:49 74.1 °F /  23.4 °C 64.5 °F /  18.1 °C 29.81in /  1009.4hPa WNW 0.5mph /  0.8km/h 7mph /  11.3km/h 72% 0.00in /  0mm 79 W/m2
16:54 74.2 °F /  23.4 °C 64.7 °F /  18.2 °C 29.81in /  1009.4hPa WNW 0.5mph /  0.8km/h 7mph /  11.3km/h 72.1% 0.00in /  0mm 100 W/m2
16:59 74.4 °F /  23.6 °C 64.8 °F /  18.2 °C 29.81in /  1009.4hPa West 0.7mph /  1.1km/h 7mph /  11.3km/h 72% 0.00in /  0mm 104 W/m2
17:04 74.5 °F /  23.6 °C 64.6 °F /  18.1 °C 29.81in /  1009.4hPa WNW 0.2mph /  0.3km/h 7mph /  11.3km/h 71.2% 0.00in /  0mm 95 W/m2
17:09 74.6 °F /  23.7 °C 64.6 °F /  18.1 °C 29.81in /  1009.4hPa Calm   3mph /  4.8km/h 71% 0.00in /  0mm 62 W/m2
17:14 74.6 °F /  23.7 °C 64.6 °F /  18.1 °C 29.81in /  1009.4hPa Calm   3mph /  4.8km/h 71% 0.00in /  0mm 67 W/m2
17:19 74.5 °F /  23.6 °C 64.5 °F /  18.1 °C 29.81in /  1009.4hPa Calm   3mph /  4.8km/h 71% 0.00in /  0mm 63 W/m2
17:24 74.4 °F /  23.6 °C 64.7 °F /  18.2 °C 29.81in /  1009.4hPa WNW 0.1mph /  0.2km/h 3mph /  4.8km/h 71.8% 0.00in /  0mm 58 W/m2
17:29 74.2 °F /  23.4 °C 64.9 °F /  18.3 °C 29.81in /  1009.4hPa Calm   3mph /  4.8km/h 72.8% 0.00in /  0mm 56 W/m2
17:34 74.1 °F /  23.4 °C 64.9 °F /  18.3 °C 29.81in /  1009.4hPa WNW 0.4mph /  0.6km/h 3mph /  4.8km/h 73% 0.00in /  0mm 49 W/m2
17:39 74 °F /  23.3 °C 64.8 °F /  18.2 °C 29.82in /  1009.7hPa WNW 0.1mph /  0.2km/h 3mph /  4.8km/h 73% 0.00in /  0mm 42 W/m2
17:44 73.7 °F /  23.2 °C 65.2 °F /  18.4 °C 29.83in /  1010hPa NW 4.2mph /  6.8km/h 14mph /  22.5km/h 74.6% 0.00in /  0mm 37 W/m2
17:49 72.9 °F /  22.7 °C 65.4 °F /  18.6 °C 29.83in /  1010hPa NNW 0.4mph /  0.6km/h 14mph /  22.5km/h 77.4% 0.07in /  1.78mm 25 W/m2
17:54 71.8 °F /  22.1 °C 65.3 °F /  18.5 °C 29.83in /  1010hPa Calm   14mph /  22.5km/h 79.9% 0.07in /  1.78mm 26 W/m2
17:59 71 °F /  21.7 °C 65.2 °F /  18.4 °C 29.83in /  1010hPa ENE 0.1mph /  0.2km/h 14mph /  22.5km/h 82% 0.07in /  1.78mm 25 W/m2
18:04 70.1 °F /  21.2 °C 64.9 °F /  18.3 °C 29.83in /  1010hPa Calm   14mph /  22.5km/h 83.7% 0.07in /  1.78mm 39 W/m2
18:09 69.2 °F /  20.7 °C 64.4 °F /  18 °C 29.84in /  1010.4hPa Calm   1mph /  1.6km/h 84.7% 0.07in /  1.78mm 39 W/m2
18:14 68.6 °F /  20.3 °C 64.4 °F /  18 °C 29.84in /  1010.4hPa Calm   1mph /  1.6km/h 86.4% 0.07in /  1.78mm 26 W/m2
18:19 68.3 °F /  20.2 °C 64.4 °F /  18 °C 29.84in /  1010.4hPa Calm   1mph /  1.6km/h 87.4% 0.07in /  1.78mm 12 W/m2
18:24 68.1 °F /  20.1 °C 64.6 °F /  18.1 °C 29.84in /  1010.4hPa NNE 0.1mph /  0.2km/h 2mph /  3.2km/h 88.5% 0.07in /  1.78mm 5 W/m2
18:29 67.9 °F /  19.9 °C 64.5 °F /  18.1 °C 29.84in /  1010.4hPa Calm   2mph /  3.2km/h 89% 0.07in /  1.78mm 7 W/m2
18:34 67.7 °F /  19.8 °C 64.4 °F /  18 °C 29.84in /  1010.4hPa Calm   2mph /  3.2km/h 89.2% 0.07in /  1.78mm 7 W/m2
18:39 67.5 °F /  19.7 °C 64.5 °F /  18.1 °C 29.84in /  1010.4hPa Calm     90% 0.07in /  1.78mm 5 W/m2
18:44 67.4 °F /  19.7 °C 64.4 °F /  18 °C 29.84in /  1010.4hPa Calm     90% 0.07in /  1.78mm 0 W/m2
18:49 67.2 °F /  19.6 °C 64.2 °F /  17.9 °C 29.84in /  1010.4hPa Calm     90% 0.07in /  1.78mm 0 W/m2
18:54 67.1 °F /  19.5 °C 64.1 °F /  17.8 °C 29.84in /  1010.4hPa Calm     90% 0.07in /  1.78mm 0 W/m2
18:59 67 °F /  19.4 °C 64.1 °F /  17.8 °C 29.84in /  1010.4hPa Calm     90.3% 0.07in /  1.78mm 0 W/m2
19:04 67 °F /  19.4 °C 64.3 °F /  17.9 °C 29.85in /  1010.7hPa Calm     91% 0.07in /  1.78mm 0 W/m2
19:09 67 °F /  19.4 °C 64.3 °F /  17.9 °C 29.85in /  1010.7hPa Calm     91% 0.00in /  0mm 0 W/m2
19:14 67 °F /  19.4 °C 64.3 °F /  17.9 °C 29.85in /  1010.7hPa Calm     91% 0.00in /  0mm 0 W/m2
19:19 67 °F /  19.4 °C 64.3 °F /  17.9 °C 29.85in /  1010.7hPa Calm     91% 0.00in /  0mm 0 W/m2
19:24 66.9 °F /  19.4 °C 64.2 °F /  17.9 °C 29.85in /  1010.7hPa Calm     91.1% 0.00in /  0mm 0 W/m2
19:29 66.8 °F /  19.3 °C 64.4 °F /  18 °C 29.85in /  1010.7hPa Calm     91.8% 0.00in /  0mm 0 W/m2
19:34 66.7 °F /  19.3 °C 64.3 °F /  17.9 °C 29.85in /  1010.7hPa NW 0.2mph /  0.3km/h 3mph /  4.8km/h 92% 0.00in /  0mm 0 W/m2
19:39 66.7 °F /  19.3 °C 64.3 °F /  17.9 °C 29.85in /  1010.7hPa Calm   3mph /  4.8km/h 92% 0.00in /  0mm 0 W/m2
19:44 66.6 °F /  19.2 °C 64.2 °F /  17.9 °C 29.85in /  1010.7hPa Calm   3mph /  4.8km/h 92% 0.00in /  0mm 0 W/m2
19:49 66.4 °F /  19.1 °C 64 °F /  17.8 °C 29.85in /  1010.7hPa Calm   3mph /  4.8km/h 92% 0.00in /  0mm 0 W/m2
19:54 66.3 °F /  19.1 °C 63.9 °F /  17.7 °C 29.85in /  1010.7hPa Calm   3mph /  4.8km/h 92% 0.00in /  0mm 0 W/m2
19:59 66.3 °F /  19.1 °C 63.9 °F /  17.7 °C 29.86in /  1011.1hPa Calm   3mph /  4.8km/h 92% 0.00in /  0mm 0 W/m2
20:00 66.3 °F /  19.1 °C 63.9 °F /  17.7 °C 29.86in /  1011.1hPa Calm   3mph /  4.8km/h 92% 0.00in /  0mm 0 W/m2
20:09 66.1 °F /  18.9 °C 63.6 °F /  17.6 °C 29.86in /  1011.1hPa Calm     91.5% 0.00in /  0mm 0 W/m2
20:14 66.2 °F /  19 °C 63.8 °F /  17.7 °C 29.87in /  1011.4hPa Calm     92% 0.00in /  0mm 0 W/m2
20:19 66.2 °F /  19 °C 63.8 °F /  17.7 °C 29.87in /  1011.4hPa Calm     92% 0.00in /  0mm 0 W/m2
20:24 66.2 °F /  19 °C 63.6 °F /  17.6 °C 29.87in /  1011.4hPa Calm     91.5% 0.00in /  0mm 0 W/m2
20:29 66.1 °F /  18.9 °C 63.4 °F /  17.4 °C 29.87in /  1011.4hPa Calm     91% 0.00in /  0mm 0 W/m2
20:34 66.1 °F /  18.9 °C 63.4 °F /  17.4 °C 29.88in /  1011.7hPa Calm     91% 0.00in /  0mm 0 W/m2
20:39 66.2 °F /  19 °C 63.5 °F /  17.5 °C 29.88in /  1011.7hPa Calm     91% 0.00in /  0mm 0 W/m2
20:44 66.1 °F /  18.9 °C 63.4 °F /  17.4 °C 29.88in /  1011.7hPa Calm     91% 0.00in /  0mm 0 W/m2
20:49 66.1 °F /  18.9 °C 63.4 °F /  17.4 °C 29.88in /  1011.7hPa NW 0.2mph /  0.3km/h 3mph /  4.8km/h 91% 0.00in /  0mm 0 W/m2
20:54 66.1 °F /  18.9 °C 63.1 °F /  17.3 °C 29.88in /  1011.7hPa Calm   3mph /  4.8km/h 90.1% 0.00in /  0mm 0 W/m2
20:59 66.1 °F /  18.9 °C 63.1 °F /  17.3 °C 29.88in /  1011.7hPa Calm   3mph /  4.8km/h 90% 0.00in /  0mm 0 W/m2
21:04 66.1 °F /  18.9 °C 63.1 °F /  17.3 °C 29.88in /  1011.7hPa Calm   3mph /  4.8km/h 90.1% 0.00in /  0mm 0 W/m2
21:09 66.1 °F /  18.9 °C 63.2 °F /  17.3 °C 29.88in /  1011.7hPa Calm     90.2% 0.00in /  0mm 0 W/m2
21:14 66 °F /  18.9 °C 63 °F /  17.2 °C 29.88in /  1011.7hPa Calm     90% 0.00in /  0mm 0 W/m2
21:19 65.9 °F /  18.8 °C 62.7 °F /  17.1 °C 29.88in /  1011.7hPa Calm     89.3% 0.00in /  0mm 0 W/m2
21:24 65.7 °F /  18.7 °C 62.4 °F /  16.9 °C 29.88in /  1011.7hPa Calm     89% 0.00in /  0mm 0 W/m2
21:29 65.6 °F /  18.7 °C 62.3 °F /  16.8 °C 29.88in /  1011.7hPa NW 0.2mph /  0.3km/h 2mph /  3.2km/h 89% 0.00in /  0mm 0 W/m2
21:34 65.4 °F /  18.6 °C 62.1 °F /  16.7 °C 29.88in /  1011.7hPa Calm   2mph /  3.2km/h 89% 0.00in /  0mm 0 W/m2
21:39 65.3 °F /  18.5 °C 62 °F /  16.7 °C 29.88in /  1011.7hPa Calm   1mph /  1.6km/h 89% 0.00in /  0mm 0 W/m2
21:44 65.2 °F /  18.4 °C 61.9 °F /  16.6 °C 29.88in /  1011.7hPa Calm   1mph /  1.6km/h 89% 0.00in /  0mm 0 W/m2
21:49 65.1 °F /  18.4 °C 61.8 °F /  16.6 °C 29.89in /  1012.1hPa Calm   1mph /  1.6km/h 89% 0.00in /  0mm 0 W/m2
21:54 65 °F /  18.3 °C 61.8 °F /  16.6 °C 29.89in /  1012.1hPa Calm   1mph /  1.6km/h 89.3% 0.00in /  0mm 0 W/m2
21:59 64.8 °F /  18.2 °C 61.8 °F /  16.6 °C 29.89in /  1012.1hPa Calm   1mph /  1.6km/h 90% 0.00in /  0mm 0 W/m2
22:04 64.7 °F /  18.2 °C 61.7 °F /  16.5 °C 29.89in /  1012.1hPa Calm   1mph /  1.6km/h 90% 0.00in /  0mm 0 W/m2
22:09 64.5 °F /  18.1 °C 61.5 °F /  16.4 °C 29.89in /  1012.1hPa Calm     90% 0.00in /  0mm 0 W/m2
22:14 64.4 °F /  18 °C 61.4 °F /  16.3 °C 29.89in /  1012.1hPa Calm     90% 0.00in /  0mm 0 W/m2
22:19 64.3 °F /  17.9 °C 61.3 °F /  16.3 °C 29.89in /  1012.1hPa Calm     90% 0.00in /  0mm 0 W/m2
22:24 64.2 °F /  17.9 °C 61.2 °F /  16.2 °C 29.89in /  1012.1hPa Calm     90% 0.00in /  0mm 0 W/m2
22:29 64.1 °F /  17.8 °C 61.1 °F /  16.2 °C 29.89in /  1012.1hPa Calm   3mph /  4.8km/h 90% 0.00in /  0mm 0 W/m2
22:34 64 °F /  17.8 °C 61 °F /  16.1 °C 29.88in /  1011.7hPa NW 0.3mph /  0.5km/h 3mph /  4.8km/h 90% 0.00in /  0mm 0 W/m2
22:39 63.9 °F /  17.7 °C 60.9 °F /  16.1 °C 29.88in /  1011.7hPa NW 1.4mph /  2.3km/h 7mph /  11.3km/h 90% 0.00in /  0mm 0 W/m2
22:44 63.9 °F /  17.7 °C 60.9 °F /  16.1 °C 29.88in /  1011.7hPa NW 0.9mph /  1.4km/h 7mph /  11.3km/h 90% 0.00in /  0mm 0 W/m2
22:49 63.8 °F /  17.7 °C 60.8 °F /  16 °C 29.88in /  1011.7hPa Calm   7mph /  11.3km/h 90% 0.00in /  0mm 0 W/m2
22:54 63.9 °F /  17.7 °C 60.8 °F /  16 °C 29.88in /  1011.7hPa WNW 0.2mph /  0.3km/h 7mph /  11.3km/h 89.5% 0.00in /  0mm 0 W/m2
22:59 63.9 °F /  17.7 °C 60.8 °F /  16 °C 29.88in /  1011.7hPa WNW 0.5mph /  0.8km/h 7mph /  11.3km/h 89.7% 0.00in /  0mm 0 W/m2
23:04 64 °F /  17.8 °C 61 °F /  16.1 °C 29.88in /  1011.7hPa Calm   7mph /  11.3km/h 90% 0.00in /  0mm 0 W/m2
23:09 64 °F /  17.8 °C 61 °F /  16.1 °C 29.88in /  1011.7hPa Calm   1mph /  1.6km/h 90% 0.00in /  0mm 0 W/m2
23:14 63.9 °F /  17.7 °C 60.9 °F /  16.1 °C 29.89in /  1012.1hPa WNW 0.1mph /  0.2km/h 3mph /  4.8km/h 90% 0.00in /  0mm 0 W/m2
23:19 63.9 °F /  17.7 °C 60.9 °F /  16.1 °C 29.89in /  1012.1hPa Calm   3mph /  4.8km/h 90% 0.00in /  0mm 0 W/m2
23:24 63.8 °F /  17.7 °C 60.6 °F /  15.9 °C 29.89in /  1012.1hPa Calm   3mph /  4.8km/h 89.2% 0.00in /  0mm 0 W/m2
23:29 63.8 °F /  17.7 °C 60.6 °F /  15.9 °C 29.89in /  1012.1hPa Calm   3mph /  4.8km/h 89.4% 0.00in /  0mm 0 W/m2
23:34 63.7 °F /  17.6 °C 60.7 °F /  15.9 °C 29.88in /  1011.7hPa WNW 0.4mph /  0.6km/h 4mph /  6.4km/h 90% 0.00in /  0mm 0 W/m2
23:39 63.6 °F /  17.6 °C 60.6 °F /  15.9 °C 29.88in /  1011.7hPa Calm   4mph /  6.4km/h 90% 0.00in /  0mm 0 W/m2
23:44 63.6 °F /  17.6 °C 60.6 °F /  15.9 °C 29.88in /  1011.7hPa Calm   4mph /  6.4km/h 90% 0.00in /  0mm 0 W/m2
23:49 63.5 °F /  17.5 °C 60.5 °F /  15.8 °C 29.88in /  1011.7hPa Calm   4mph /  6.4km/h 90% 0.00in /  0mm 0 W/m2
23:54 63.4 °F /  17.4 °C 60.4 °F /  15.8 °C 29.88in /  1011.7hPa NW 0.1mph /  0.2km/h 4mph /  6.4km/h 90% 0.00in /  0mm 0 W/m2
23:59 63.4 °F /  17.4 °C 60.4 °F /  15.8 °C 29.88in /  1011.7hPa WNW 0.1mph /  0.2km/h 4mph /  6.4km/h 90% 0.00in /  0mm 0 W/m2
Hartford County Weather
Compliments of Weather Underground - 2 mb